Time;durP1;ratioP1;P1;durP2;ratioP2;P2;SDS_P1;SDS_P2;PMS_P1;PMS_P2;Temp;Humidity;BMP_temperature;BMP_pressure;BME280_temperature;BME280_humidity;BME280_pressure;Samples;Min_cycle;Max_cycle;Signal;HPM_P1;HPM_P2
2021/07/19 00:02:20;;;;;;;5.55;4.30;;;;;;;;;;5093197;28;20027;-63
2021/07/19 00:04:46;;;;;;;4.90;4.20;;;;;;;;;;5093429;28;20036;-63
2021/07/19 00:07:11;;;;;;;4.65;3.90;;;;;;;;;;5093222;28;20024;-63
2021/07/19 00:09:37;;;;;;;4.47;3.50;;;;;;;;;;5093485;28;20125;-65
2021/07/19 00:12:04;;;;;;;4.55;3.88;;;;;;;;;;5093451;28;20078;-64
2021/07/19 00:14:30;;;;;;;7.65;3.70;;;;;;;;;;5093258;28;20383;-64
2021/07/19 00:16:55;;;;;;;3.17;2.92;;;;;;;;;;5093423;28;20028;-63
2021/07/19 00:19:21;;;;;;;5.05;3.30;;;;;;;;;;5058407;28;20396;-64
2021/07/19 00:21:46;;;;;;;3.28;2.65;;;;;;;;;;5093346;28;20050;-64
2021/07/19 00:24:12;;;;;;;3.60;2.55;;;;;;;;;;5093454;28;20028;-65
2021/07/19 00:26:37;;;;;;;5.97;2.55;;;;;;;;;;5093080;28;20479;-64
2021/07/19 00:29:03;;;;;;;3.15;2.90;;;;;;;;;;5093612;28;20035;-65
2021/07/19 00:31:32;;;;;;;3.22;2.90;;;;;;;;;;5092947;28;20055;-64
2021/07/19 00:33:58;;;;;;;4.90;2.42;;;;;;;;;;5093210;28;20089;-65
2021/07/19 00:36:24;;;;;;;2.75;2.55;;;;;;;;;;5093318;28;20028;-64
2021/07/19 00:38:51;;;;;;;4.72;2.88;;;;;;;;;;5075095;28;20047;-65
2021/07/19 00:41:16;;;;;;;5.50;3.10;;;;;;;;;;5092536;28;20036;-65
2021/07/19 00:43:42;;;;;;;2.88;2.60;;;;;;;;;;5092876;28;20501;-64
2021/07/19 00:46:08;;;;;;;4.15;2.80;;;;;;;;;;5074966;28;20093;-64
2021/07/19 00:48:33;;;;;;;2.95;2.72;;;;;;;;;;5092819;28;20063;-64
2021/07/19 00:51:00;;;;;;;2.95;2.60;;;;;;;;;;5075364;28;20020;-65
2021/07/19 00:53:26;;;;;;;3.00;2.70;;;;;;;;;;5096588;28;20368;-65
2021/07/19 00:55:54;;;;;;;3.05;2.50;;;;;;;;;;5096754;28;20023;-66
2021/07/19 00:58:22;;;;;;;3.80;2.97;;;;;;;;;;5078839;28;20371;-65
2021/07/19 01:00:50;;;;;;;2.97;2.33;;;;;;;;;;5096665;28;20352;-65
2021/07/19 01:03:17;;;;;;;4.43;2.80;;;;;;;;;;5078728;28;20024;-64
2021/07/19 01:05:43;;;;;;;2.90;2.63;;;;;;;;;;5078502;28;20035;-64
2021/07/19 01:08:11;;;;;;;3.20;2.25;;;;;;;;;;5096543;28;20028;-64
2021/07/19 01:10:37;;;;;;;3.08;2.58;;;;;;;;;;5096587;28;20023;-65
2021/07/19 01:13:04;;;;;;;2.88;2.47;;;;;;;;;;5096761;28;20103;-66
2021/07/19 01:15:33;;;;;;;2.75;2.35;;;;;;;;;;5077898;28;20467;-65
2021/07/19 01:18:00;;;;;;;3.55;2.55;;;;;;;;;;5078317;28;20029;-65
2021/07/19 01:20:30;;;;;;;3.88;2.50;;;;;;;;;;5078290;28;20104;-65
2021/07/19 01:22:55;;;;;;;3.30;2.50;;;;;;;;;;5096359;28;20115;-66
2021/07/19 01:25:42;;;;;;;3.17;2.70;;;;;;;;;;5077951;28;20016;-66
2021/07/19 01:28:29;;;;;;;3.03;2.75;;;;;;;;;;5078335;28;20031;-66
2021/07/19 01:30:58;;;;;;;4.00;2.88;;;;;;;;;;5078061;28;20034;-63
2021/07/19 01:33:24;;;;;;;3.00;2.75;;;;;;;;;;5077961;28;20023;-63
2021/07/19 01:35:52;;;;;;;3.25;2.90;;;;;;;;;;5061216;28;20088;-63
2021/07/19 01:38:18;;;;;;;4.28;2.97;;;;;;;;;;5078009;28;20020;-63
2021/07/19 01:40:50;;;;;;;7.07;3.33;;;;;;;;;;5074014;28;20587;-65
2021/07/19 01:43:17;;;;;;;3.17;2.88;;;;;;;;;;5076019;28;20135;-64
2021/07/19 01:45:45;;;;;;;3.97;3.15;;;;;;;;;;5074300;28;20016;-65
2021/07/19 01:48:12;;;;;;;3.30;3.00;;;;;;;;;;5057948;28;20526;-65
2021/07/19 01:50:38;;;;;;;7.70;3.05;;;;;;;;;;5075808;28;20096;-65
2021/07/19 01:53:14;;;;;;;3.85;3.47;;;;;;;;;;5074375;28;20036;-63
2021/07/19 01:55:41;;;;;;;6.20;3.45;;;;;;;;;;5074180;28;20037;-64
2021/07/19 01:58:10;;;;;;;5.63;3.88;;;;;;;;;;5074151;28;20107;-63
2021/07/19 02:00:38;;;;;;;4.18;3.78;;;;;;;;;;5074111;28;20032;-62
2021/07/19 02:03:09;;;;;;;6.35;3.60;;;;;;;;;;5073063;28;20028;-63
2021/07/19 02:05:41;;;;;;;4.60;4.03;;;;;;;;;;5075174;28;20369;-62
2021/07/19 02:08:08;;;;;;;5.45;3.70;;;;;;;;;;5073999;28;20066;-62
2021/07/19 02:10:56;;;;;;;6.18;4.07;;;;;;;;;;5073709;28;20111;-62
2021/07/19 02:13:25;;;;;;;5.57;4.10;;;;;;;;;;5073926;28;20037;-62
2021/07/19 02:15:53;;;;;;;4.57;4.13;;;;;;;;;;5073657;28;20450;-62
2021/07/19 02:18:24;;;;;;;4.35;3.97;;;;;;;;;;5075266;28;20086;-62
2021/07/19 02:20:52;;;;;;;4.97;4.30;;;;;;;;;;5073955;28;20024;-62
2021/07/19 02:23:21;;;;;;;6.03;4.93;;;;;;;;;;5074960;28;20452;-62
2021/07/19 02:26:08;;;;;;;5.30;4.82;;;;;;;;;;5075033;28;20161;-62
2021/07/19 02:28:35;;;;;;;6.13;4.38;;;;;;;;;;5073493;28;20025;-62
2021/07/19 02:31:03;;;;;;;4.53;4.13;;;;;;;;;;5073683;28;20016;-62
2021/07/19 02:33:29;;;;;;;5.82;3.58;;;;;;;;;;5073641;28;20043;-62
2021/07/19 02:35:56;;;;;;;4.10;3.70;;;;;;;;;;5074368;28;20438;-64
2021/07/19 02:38:28;;;;;;;4.50;3.25;;;;;;;;;;5073432;28;20021;-62
2021/07/19 02:41:04;;;;;;;3.25;2.95;;;;;;;;;;5072555;28;20032;-63
2021/07/19 02:43:30;;;;;;;4.75;2.95;;;;;;;;;;5074918;28;20044;-62
2021/07/19 02:45:58;;;;;;;4.72;3.17;;;;;;;;;;5073331;28;20032;-62
2021/07/19 02:48:29;;;;;;;3.75;3.45;;;;;;;;;;5074756;28;20028;-62
2021/07/19 02:50:56;;;;;;;4.35;3.45;;;;;;;;;;5074315;28;20395;-62
2021/07/19 02:53:23;;;;;;;15.50;4.40;;;;;;;;;;5073065;28;20017;-62
2021/07/19 02:55:51;;;;;;;8.75;4.40;;;;;;;;;;5073010;28;20353;-62
2021/07/19 02:58:19;;;;;;;5.47;4.65;;;;;;;;;;5072869;28;20025;-62
2021/07/19 03:00:46;;;;;;;7.13;4.63;;;;;;;;;;5072939;28;20078;-62
2021/07/19 03:03:18;;;;;;;4.22;3.83;;;;;;;;;;5073641;28;20043;-63
2021/07/19 03:05:46;;;;;;;5.22;4.55;;;;;;;;;;5072496;28;20063;-64
2021/07/19 03:08:17;;;;;;;4.78;4.20;;;;;;;;;;5056825;28;20028;-64
2021/07/19 03:11:05;;;;;;;4.82;4.03;;;;;;;;;;5062435;28;20028;-64
2021/07/19 03:13:32;;;;;;;6.13;4.30;;;;;;;;;;5056144;28;20036;-63
2021/07/19 03:15:59;;;;;;;6.50;4.75;;;;;;;;;;5072420;28;20396;-64
2021/07/19 03:18:27;;;;;;;5.65;4.40;;;;;;;;;;5074059;28;20464;-64
2021/07/19 03:20:55;;;;;;;5.80;5.13;;;;;;;;;;5072646;28;20024;-62
2021/07/19 03:23:23;;;;;;;6.88;5.10;;;;;;;;;;5072506;28;20093;-62
2021/07/19 03:25:50;;;;;;;7.00;4.67;;;;;;;;;;5055807;28;20525;-62
2021/07/19 03:28:17;;;;;;;7.40;4.65;;;;;;;;;;5072297;28;20033;-65
2021/07/19 03:30:43;;;;;;;13.52;4.90;;;;;;;;;;5073539;28;20500;-67
2021/07/19 03:33:11;;;;;;;7.53;4.72;;;;;;;;;;5072313;28;20024;-67
2021/07/19 03:35:37;;;;;;;6.00;4.22;;;;;;;;;;5072085;28;20017;-67
2021/07/19 03:38:05;;;;;;;4.72;4.18;;;;;;;;;;5072256;28;20031;-67
2021/07/19 03:40:36;;;;;;;5.38;4.35;;;;;;;;;;5059106;28;20040;-67
2021/07/19 03:43:03;;;;;;;5.35;4.45;;;;;;;;;;5075694;28;20058;-68
2021/07/19 03:45:30;;;;;;;5.28;4.45;;;;;;;;;;5093742;28;20032;-72
2021/07/19 03:47:57;;;;;;;6.90;4.18;;;;;;;;;;5059287;28;20036;-71
2021/07/19 03:50:26;;;;;;;6.13;4.22;;;;;;;;;;5075722;28;20043;-71
2021/07/19 03:52:53;;;;;;;5.03;3.97;;;;;;;;;;5075757;28;20024;-71
2021/07/19 03:55:23;;;;;;;6.53;4.20;;;;;;;;;;5075818;28;20033;-71
2021/07/19 03:57:51;;;;;;;6.25;5.05;;;;;;;;;;5075460;28;20113;-71
2021/07/19 04:00:19;;;;;;;6.43;3.83;;;;;;;;;;5075600;28;20027;-71
2021/07/19 04:03:04;;;;;;;4.20;3.85;;;;;;;;;;5075304;28;20027;-63
2021/07/19 04:05:40;;;;;;;7.15;4.57;;;;;;;;;;5074975;28;20063;-64
2021/07/19 04:08:13;;;;;;;5.80;4.00;;;;;;;;;;5059493;28;20023;-64
2021/07/19 04:10:39;;;;;;;4.45;4.05;;;;;;;;;;5075103;28;20032;-64
2021/07/19 04:13:08;;;;;;;9.13;4.63;;;;;;;;;;5075120;28;20110;-64
2021/07/19 04:15:39;;;;;;;6.93;5.10;;;;;;;;;;5075232;28;20034;-64
2021/07/19 04:18:06;;;;;;;8.77;5.28;;;;;;;;;;5075151;28;20024;-64
2021/07/19 04:20:43;;;;;;;6.88;4.80;;;;;;;;;;5075296;28;20040;-63
2021/07/19 04:23:12;;;;;;;6.18;4.15;;;;;;;;;;5093305;28;20020;-63
2021/07/19 04:25:38;;;;;;;4.63;4.22;;;;;;;;;;5074426;28;20016;-63
2021/07/19 04:28:05;;;;;;;6.30;4.10;;;;;;;;;;5079134;28;20027;-64
2021/07/19 04:30:32;;;;;;;5.57;4.38;;;;;;;;;;5062629;28;20107;-64
2021/07/19 04:32:58;;;;;;;4.90;4.40;;;;;;;;;;5097278;28;20024;-64
2021/07/19 04:35:23;;;;;;;5.47;4.55;;;;;;;;;;5097036;28;20489;-63
2021/07/19 04:37:52;;;;;;;5.10;4.35;;;;;;;;;;5078758;28;20024;-63
2021/07/19 04:40:21;;;;;;;7.20;5.35;;;;;;;;;;5097008;28;20016;-63
2021/07/19 04:42:46;;;;;;;7.28;5.38;;;;;;;;;;5097373;28;20359;-63
2021/07/19 04:45:13;;;;;;;6.03;5.30;;;;;;;;;;5079113;28;20028;-63
2021/07/19 04:47:39;;;;;;;6.00;4.82;;;;;;;;;;5062203;28;20036;-64
2021/07/19 04:50:05;;;;;;;7.30;5.03;;;;;;;;;;5096903;28;20020;-63
2021/07/19 04:52:47;;;;;;;6.65;5.43;;;;;;;;;;5078241;28;20032;-63
2021/07/19 04:55:19;;;;;;;4.93;4.40;;;;;;;;;;5096880;28;20032;-63
2021/07/19 04:57:47;;;;;;;6.88;5.65;;;;;;;;;;5096964;28;20028;-63
2021/07/19 05:00:12;;;;;;;8.02;5.60;;;;;;;;;;5096818;28;20126;-63
2021/07/19 05:02:40;;;;;;;8.07;5.30;;;;;;;;;;5096711;28;20529;-63
2021/07/19 05:05:06;;;;;;;9.13;6.00;;;;;;;;;;5096575;28;20028;-63
2021/07/19 05:07:32;;;;;;;8.50;5.55;;;;;;;;;;5096499;28;20024;-63
2021/07/19 05:09:59;;;;;;;6.50;5.10;;;;;;;;;;5096484;28;20478;-63
2021/07/19 05:12:25;;;;;;;9.82;4.88;;;;;;;;;;5096616;28;20081;-63
2021/07/19 05:14:51;;;;;;;7.53;5.35;;;;;;;;;;5096432;28;20523;-63
2021/07/19 05:17:18;;;;;;;8.93;5.38;;;;;;;;;;5078044;28;20449;-63
2021/07/19 05:19:44;;;;;;;9.70;5.47;;;;;;;;;;5096332;28;20024;-63
2021/07/19 05:22:10;;;;;;;5.93;5.25;;;;;;;;;;5078333;28;20028;-63
2021/07/19 05:24:36;;;;;;;6.22;4.90;;;;;;;;;;5078182;28;20061;-63
2021/07/19 05:27:02;;;;;;;7.15;5.28;;;;;;;;;;5096400;28;20032;-63
2021/07/19 05:29:27;;;;;;;5.53;4.43;;;;;;;;;;5096370;28;20020;-63
2021/07/19 05:31:53;;;;;;;10.27;4.53;;;;;;;;;;5078105;28;20035;-63
2021/07/19 05:34:18;;;;;;;4.70;4.30;;;;;;;;;;5095920;28;20055;-63
2021/07/19 05:36:44;;;;;;;5.00;4.10;;;;;;;;;;5095705;28;20097;-63
2021/07/19 05:39:09;;;;;;;6.10;4.10;;;;;;;;;;5094718;28;20494;-63
2021/07/19 05:41:35;;;;;;;7.75;4.95;;;;;;;;;;5095647;28;20131;-70
2021/07/19 05:44:00;;;;;;;5.15;3.90;;;;;;;;;;5096222;28;20387;-71
2021/07/19 05:46:26;;;;;;;6.40;3.85;;;;;;;;;;5095457;28;20044;-70
2021/07/19 05:48:51;;;;;;;7.57;4.78;;;;;;;;;;5077321;28;20017;-63
2021/07/19 05:51:17;;;;;;;6.05;4.40;;;;;;;;;;5095718;28;20024;-64
2021/07/19 05:53:42;;;;;;;5.15;4.60;;;;;;;;;;5095543;28;20513;-63
2021/07/19 05:56:08;;;;;;;7.05;4.60;;;;;;;;;;5095560;28;20032;-63
2021/07/19 05:58:34;;;;;;;5.28;4.22;;;;;;;;;;5095578;28;20146;-63
2021/07/19 06:00:59;;;;;;;8.13;4.72;;;;;;;;;;5095463;28;20120;-63
2021/07/19 06:03:25;;;;;;;4.50;3.65;;;;;;;;;;5095379;28;20088;-63
2021/07/19 06:05:50;;;;;;;4.80;4.30;;;;;;;;;;5095171;28;20062;-63
2021/07/19 06:08:16;;;;;;;5.55;3.83;;;;;;;;;;5095174;28;20433;-63
2021/07/19 06:10:41;;;;;;;6.05;4.03;;;;;;;;;;5095624;28;20464;-63
2021/07/19 06:13:07;;;;;;;5.28;4.35;;;;;;;;;;5094753;28;20450;-63
2021/07/19 06:15:33;;;;;;;8.75;4.40;;;;;;;;;;5095160;28;20039;-63
2021/07/19 06:17:58;;;;;;;6.90;4.35;;;;;;;;;;5077123;28;20475;-63
2021/07/19 06:20:30;;;;;;;5.95;4.45;;;;;;;;;;5095060;28;20027;-63
2021/07/19 06:23:02;;;;;;;4.55;4.10;;;;;;;;;;5095124;28;20028;-63
2021/07/19 06:25:29;;;;;;;5.22;4.40;;;;;;;;;;5094809;28;20031;-63
2021/07/19 06:27:55;;;;;;;6.50;4.57;;;;;;;;;;5094902;28;20023;-63
2021/07/19 06:30:20;;;;;;;4.50;3.83;;;;;;;;;;5094880;28;20024;-63
2021/07/19 06:32:46;;;;;;;4.65;4.07;;;;;;;;;;5095114;28;20383;-63
2021/07/19 06:35:11;;;;;;;5.57;4.40;;;;;;;;;;5094648;28;20020;-63
2021/07/19 06:37:37;;;;;;;5.47;4.55;;;;;;;;;;5094820;28;20023;-63
2021/07/19 06:40:04;;;;;;;6.43;4.75;;;;;;;;;;5094703;28;20028;-63
2021/07/19 06:42:29;;;;;;;4.28;3.88;;;;;;;;;;5094142;28;20048;-63
2021/07/19 06:44:57;;;;;;;5.13;4.20;;;;;;;;;;5094488;28;20024;-70
2021/07/19 06:47:23;;;;;;;4.93;4.20;;;;;;;;;;5094607;28;20071;-70
2021/07/19 06:49:48;;;;;;;9.07;4.47;;;;;;;;;;5094285;28;20108;-70
2021/07/19 06:52:14;;;;;;;5.57;4.20;;;;;;;;;;5076227;28;20103;-70
2021/07/19 06:54:40;;;;;;;5.43;4.70;;;;;;;;;;5094438;28;20036;-70
2021/07/19 06:57:05;;;;;;;5.10;4.20;;;;;;;;;;5094537;28;20030;-70
2021/07/19 06:59:31;;;;;;;6.25;4.72;;;;;;;;;;5075846;28;20036;-70
2021/07/19 07:01:56;;;;;;;4.95;4.45;;;;;;;;;;5094347;28;20016;-70
2021/07/19 07:04:22;;;;;;;8.18;4.40;;;;;;;;;;5094513;28;20031;-64
2021/07/19 07:06:47;;;;;;;5.50;4.40;;;;;;;;;;5094107;28;20020;-63
2021/07/19 07:09:13;;;;;;;5.43;4.72;;;;;;;;;;5094263;28;20453;-63
2021/07/19 07:11:38;;;;;;;6.13;4.90;;;;;;;;;;5093996;28;20012;-64
2021/07/19 07:14:05;;;;;;;7.10;4.53;;;;;;;;;;5093928;28;20050;-63
2021/07/19 07:16:30;;;;;;;5.53;4.88;;;;;;;;;;5093724;28;20020;-63
2021/07/19 07:18:56;;;;;;;6.95;4.65;;;;;;;;;;5093634;28;20440;-63
2021/07/19 07:21:22;;;;;;;6.45;4.78;;;;;;;;;;5093872;28;20019;-64
2021/07/19 07:23:48;;;;;;;5.47;4.55;;;;;;;;;;5093889;28;20101;-64
2021/07/19 07:26:13;;;;;;;4.28;3.88;;;;;;;;;;5075701;28;20066;-64
2021/07/19 07:28:39;;;;;;;5.65;4.55;;;;;;;;;;5093982;28;20043;-64
2021/07/19 07:31:04;;;;;;;5.40;4.03;;;;;;;;;;5093858;28;20475;-64
2021/07/19 07:33:30;;;;;;;9.13;4.53;;;;;;;;;;5093808;28;20024;-64
2021/07/19 07:35:55;;;;;;;6.88;4.63;;;;;;;;;;5075368;28;20016;-63
2021/07/19 07:38:21;;;;;;;6.75;4.90;;;;;;;;;;5093883;28;20039;-64
2021/07/19 07:40:48;;;;;;;8.80;4.57;;;;;;;;;;5093101;28;20118;-64
2021/07/19 07:43:14;;;;;;;10.15;4.38;;;;;;;;;;5093838;28;20081;-63
2021/07/19 07:45:39;;;;;;;5.85;5.25;;;;;;;;;;5093745;28;20032;-64
2021/07/19 07:48:05;;;;;;;7.07;5.25;;;;;;;;;;5093793;28;20024;-64
2021/07/19 07:50:30;;;;;;;8.30;5.50;;;;;;;;;;5093636;28;20020;-64
2021/07/19 07:52:56;;;;;;;5.80;5.00;;;;;;;;;;5075283;28;20032;-64
2021/07/19 07:55:22;;;;;;;5.78;4.78;;;;;;;;;;5093655;28;20008;-62
2021/07/19 07:57:47;;;;;;;6.70;5.15;;;;;;;;;;5075295;28;20032;-64
2021/07/19 08:00:14;;;;;;;6.03;4.45;;;;;;;;;;5093215;28;20062;-64
2021/07/19 08:02:40;;;;;;;7.50;5.30;;;;;;;;;;5093262;28;20032;-64
2021/07/19 08:05:06;;;;;;;7.68;4.80;;;;;;;;;;5093347;28;20031;-65
2021/07/19 08:07:32;;;;;;;5.35;4.80;;;;;;;;;;5093101;28;20035;-61
2021/07/19 08:09:57;;;;;;;5.15;4.57;;;;;;;;;;5093415;28;20384;-64
2021/07/19 08:12:23;;;;;;;6.35;4.60;;;;;;;;;;5093351;28;20478;-65
2021/07/19 08:14:49;;;;;;;5.93;4.38;;;;;;;;;;5075515;28;20017;-65
2021/07/19 08:17:15;;;;;;;7.75;6.03;;;;;;;;;;5093262;28;20035;-64
2021/07/19 08:19:40;;;;;;;6.47;5.70;;;;;;;;;;5075107;28;20016;-64
2021/07/19 08:22:11;;;;;;;9.00;5.22;;;;;;;;;;5093191;28;20035;-64
2021/07/19 08:24:37;;;;;;;6.18;5.28;;;;;;;;;;5093351;28;20036;-64
2021/07/19 08:27:03;;;;;;;5.95;5.13;;;;;;;;;;5093170;28;20356;-64
2021/07/19 08:29:28;;;;;;;7.38;5.35;;;;;;;;;;5092995;28;20028;-63
2021/07/19 08:31:55;;;;;;;5.93;5.32;;;;;;;;;;5093063;28;20020;-62
2021/07/19 08:34:21;;;;;;;7.43;5.43;;;;;;;;;;5093233;28;20020;-63
2021/07/19 08:36:46;;;;;;;8.48;6.03;;;;;;;;;;5093350;28;20080;-63
2021/07/19 08:39:12;;;;;;;7.00;5.00;;;;;;;;;;5075054;28;20039;-63
2021/07/19 08:41:37;;;;;;;6.45;5.80;;;;;;;;;;5092808;28;20052;-63
2021/07/19 08:44:05;;;;;;;7.53;5.88;;;;;;;;;;5093079;28;20517;-63
2021/07/19 08:46:30;;;;;;;6.18;5.35;;;;;;;;;;5092938;28;20051;-63
2021/07/19 08:48:56;;;;;;;6.75;5.50;;;;;;;;;;5093043;28;20074;-63
2021/07/19 08:51:22;;;;;;;6.65;4.85;;;;;;;;;;5092231;28;20017;-63
2021/07/19 08:53:47;;;;;;;6.65;5.53;;;;;;;;;;5092119;28;20608;-63
2021/07/19 08:56:14;;;;;;;7.15;5.80;;;;;;;;;;5074185;28;20373;-63
2021/07/19 09:02:14;;;;;;;9.38;5.40;;;;;;;;;;5093454;28;20098;-63
2021/07/19 09:08:14;;;;;;;7.90;6.28;;;;;;;;;;5093105;28;20050;-62
2021/07/19 09:14:15;;;;;;;7.35;5.90;;;;;;;;;;5097009;28;20069;-63
2021/07/19 09:31:07;;;;;;;5.63;5.13;;;;;;;;;;5034415;28;20028;-63
2021/07/19 09:33:35;;;;;;;6.00;5.40;;;;;;;;;;5033950;28;20041;-63
2021/07/19 09:36:01;;;;;;;6.05;5.45;;;;;;;;;;5016942;28;20528;-63
2021/07/19 09:38:28;;;;;;;9.95;6.13;;;;;;;;;;5033631;28;20054;-63
2021/07/19 09:40:56;;;;;;;5.20;4.68;;;;;;;;;;5033099;28;20073;-63
2021/07/19 09:43:23;;;;;;;5.80;4.88;;;;;;;;;;5033451;28;20046;-63
2021/07/19 09:45:59;;;;;;;11.18;5.38;;;;;;;;;;5033239;28;20033;-63
2021/07/19 09:48:24;;;;;;;7.70;5.95;;;;;;;;;;5033416;28;20398;-63
2021/07/19 09:50:52;;;;;;;8.35;6.50;;;;;;;;;;5033173;28;20121;-63
2021/07/19 09:53:32;;;;;;;7.38;5.57;;;;;;;;;;5041236;28;20041;-63
2021/07/19 09:56:19;;;;;;;7.65;5.57;;;;;;;;;;5075097;28;20028;-63
2021/07/19 09:58:48;;;;;;;7.72;6.55;;;;;;;;;;5075209;28;20028;-63
2021/07/19 10:01:30;;;;;;;11.23;6.63;;;;;;;;;;5074067;28;20044;-63
2021/07/19 10:04:21;;;;;;;10.13;5.85;;;;;;;;;;5075136;28;20039;-63
2021/07/19 10:06:49;;;;;;;10.20;5.88;;;;;;;;;;5071083;28;20097;-63
2021/07/19 10:09:14;;;;;;;9.57;6.80;;;;;;;;;;5073604;28;20024;-63
2021/07/19 10:11:42;;;;;;;6.00;5.22;;;;;;;;;;5075249;28;20387;-63
2021/07/19 10:14:08;;;;;;;6.22;5.35;;;;;;;;;;5075565;28;20017;-63
2021/07/19 10:16:34;;;;;;;9.32;5.22;;;;;;;;;;5073755;28;20027;-63
2021/07/19 10:19:01;;;;;;;6.35;5.68;;;;;;;;;;5075201;28;20480;-63
2021/07/19 10:21:30;;;;;;;7.45;5.35;;;;;;;;;;5075007;28;20033;-63
2021/07/19 10:24:07;;;;;;;5.78;5.32;;;;;;;;;;5074347;28;20066;-63
2021/07/19 10:26:34;;;;;;;6.45;5.20;;;;;;;;;;5074471;28;20028;-63
2021/07/19 10:29:00;;;;;;;5.90;5.30;;;;;;;;;;5074821;28;20024;-63
2021/07/19 10:31:26;;;;;;;7.43;6.28;;;;;;;;;;5074819;28;20025;-63
2021/07/19 10:33:52;;;;;;;7.25;6.25;;;;;;;;;;5074586;28;20012;-62
2021/07/19 10:36:24;;;;;;;8.55;7.47;;;;;;;;;;5073193;28;20029;-61
2021/07/19 10:38:53;;;;;;;7.68;6.88;;;;;;;;;;5074146;28;20028;-62
2021/07/19 10:41:22;;;;;;;8.10;7.07;;;;;;;;;;5082646;28;20048;-62
2021/07/19 10:43:48;;;;;;;;;;;;;;;;;;5095074;28;20475;-62
2021/07/19 10:46:14;;;;;;;8.75;7.30;;;;;;;;;;5094562;28;19961;-62
2021/07/19 10:48:41;;;;;;;8.02;6.82;;;;;;;;;;5094779;28;20024;-62
2021/07/19 10:51:17;;;;;;;8.52;6.65;;;;;;;;;;5094895;28;20016;-62
2021/07/19 10:53:43;;;;;;;8.77;6.15;;;;;;;;;;5094707;28;20035;-62
2021/07/19 10:56:10;;;;;;;9.90;6.95;;;;;;;;;;5094518;28;20028;-62
2021/07/19 10:58:43;;;;;;;10.60;7.63;;;;;;;;;;5094534;28;20039;-62
2021/07/19 11:01:27;;;;;;;8.35;7.07;;;;;;;;;;5076521;28;20119;-62
2021/07/19 11:03:57;;;;;;;11.10;7.03;;;;;;;;;;5094385;28;20036;-63
2021/07/19 11:06:22;;;;;;;;;;;;;;;;;;5094620;28;20364;-62
2021/07/19 11:08:50;;;;;;;8.43;6.60;;;;;;;;;;5094151;28;19911;-62
2021/07/19 11:11:25;;;;;;;10.40;7.78;;;;;;;;;;5093916;28;20024;-63
2021/07/19 11:13:58;;;;;;;11.40;8.35;;;;;;;;;;5093937;28;20039;-62
2021/07/19 11:16:24;;;;;;;10.13;6.40;;;;;;;;;;5093921;28;20028;-63
2021/07/19 11:18:54;;;;;;;7.60;6.60;;;;;;;;;;5094082;28;20387;-63
2021/07/19 11:21:24;;;;;;;9.77;8.02;;;;;;;;;;5094051;28;20043;-64
2021/07/19 11:23:49;;;;;;;12.05;9.15;;;;;;;;;;5093990;28;20111;-61
2021/07/19 11:26:22;;;;;;;8.00;6.80;;;;;;;;;;5093882;28;20405;-61
2021/07/19 11:28:48;;;;;;;12.73;8.48;;;;;;;;;;5093900;28;20055;-62
2021/07/19 11:31:17;;;;;;;11.45;8.90;;;;;;;;;;5093852;28;20043;-62
2021/07/19 11:33:47;;;;;;;10.45;9.00;;;;;;;;;;5093537;28;20443;-61
2021/07/19 11:36:23;;;;;;;9.82;7.18;;;;;;;;;;5093800;28;20641;-61
2021/07/19 11:38:49;;;;;;;9.50;7.50;;;;;;;;;;5093781;28;20024;-61
2021/07/19 11:41:16;;;;;;;10.30;8.10;;;;;;;;;;5093307;28;20040;-61
2021/07/19 11:43:42;;;;;;;12.70;8.38;;;;;;;;;;5093813;28;20460;-61
2021/07/19 11:46:08;;;;;;;11.13;8.27;;;;;;;;;;5093576;28;20028;-62
2021/07/19 11:48:33;;;;;;;14.30;9.13;;;;;;;;;;5093687;28;20077;-61
2021/07/19 11:50:59;;;;;;;12.85;10.00;;;;;;;;;;5093233;28;20020;-60
2021/07/19 11:53:24;;;;;;;19.33;11.80;;;;;;;;;;5093487;28;20498;-60
2021/07/19 11:55:50;;;;;;;22.48;11.80;;;;;;;;;;5093137;28;20076;-60
2021/07/19 11:58:16;;;;;;;18.88;11.40;;;;;;;;;;5093308;28;20024;-60
2021/07/19 12:00:44;;;;;;;13.02;11.63;;;;;;;;;;5093540;28;20073;-60
2021/07/19 12:03:11;;;;;;;17.25;10.00;;;;;;;;;;5093234;28;20497;-60
2021/07/19 12:05:37;;;;;;;20.48;10.35;;;;;;;;;;5075278;28;20073;-60
2021/07/19 12:08:02;;;;;;;14.73;11.45;;;;;;;;;;5093164;28;20107;-60
2021/07/19 12:10:28;;;;;;;12.27;9.43;;;;;;;;;;5075384;28;20071;-60
2021/07/19 12:12:54;;;;;;;11.70;8.15;;;;;;;;;;5075024;28;20036;-60
2021/07/19 12:15:20;;;;;;;13.40;9.80;;;;;;;;;;5093082;28;20154;-60
2021/07/19 12:17:45;;;;;;;8.93;7.43;;;;;;;;;;5075095;28;20111;-60
2021/07/19 12:20:12;;;;;;;19.95;10.52;;;;;;;;;;5093407;28;20103;-60
2021/07/19 12:22:37;;;;;;;14.90;11.10;;;;;;;;;;5093311;28;20094;-60
2021/07/19 12:25:04;;;;;;;11.45;10.15;;;;;;;;;;5093270;28;20503;-60
2021/07/19 12:27:29;;;;;;;14.45;12.93;;;;;;;;;;5093167;28;20490;-60
2021/07/19 12:29:55;;;;;;;17.15;11.05;;;;;;;;;;5093047;28;20028;-60
2021/07/19 12:32:21;;;;;;;14.15;11.75;;;;;;;;;;5093322;28;20024;-60
2021/07/19 12:34:47;;;;;;;16.02;11.80;;;;;;;;;;5092984;28;20020;-59
2021/07/19 12:37:20;;;;;;;14.93;10.85;;;;;;;;;;5093266;28;20123;-59
2021/07/19 12:39:50;;;;;;;24.75;11.70;;;;;;;;;;5092930;28;20020;-59
2021/07/19 12:42:22;;;;;;;13.32;10.15;;;;;;;;;;5092912;28;20079;-60
2021/07/19 12:44:52;;;;;;;14.75;10.85;;;;;;;;;;5093363;28;20039;-60
2021/07/19 12:47:18;;;;;;;11.98;9.60;;;;;;;;;;5094125;28;20066;-59
2021/07/19 12:49:43;;;;;;;12.15;9.43;;;;;;;;;;5096896;28;20024;-59
2021/07/19 12:52:13;;;;;;;11.23;8.15;;;;;;;;;;5097051;28;20078;-60
2021/07/19 12:54:39;;;;;;;13.80;8.30;;;;;;;;;;5078517;28;20034;-60
2021/07/19 12:57:05;;;;;;;10.52;8.30;;;;;;;;;;5096800;28;20020;-60
2021/07/19 12:59:30;;;;;;;9.77;7.60;;;;;;;;;;5096591;28;20088;-60
2021/07/19 13:02:00;;;;;;;8.35;6.88;;;;;;;;;;5096543;28;20028;-60
2021/07/19 13:04:26;;;;;;;10.02;7.47;;;;;;;;;;5096527;28;20042;-60
2021/07/19 13:06:52;;;;;;;10.13;6.97;;;;;;;;;;5096384;28;20523;-60
2021/07/19 13:09:20;;;;;;;8.82;6.72;;;;;;;;;;5078252;28;20071;-60
2021/07/19 13:11:45;;;;;;;8.60;6.82;;;;;;;;;;5096706;28;20013;-60
2021/07/19 13:14:11;;;;;;;8.02;6.72;;;;;;;;;;5096439;28;20476;-60
2021/07/19 13:16:37;;;;;;;11.38;6.65;;;;;;;;;;5096285;28;20020;-60
2021/07/19 13:19:02;;;;;;;8.80;7.15;;;;;;;;;;5096168;28;20082;-61
2021/07/19 13:21:28;;;;;;;9.93;6.50;;;;;;;;;;5095923;28;20031;-61
2021/07/19 13:23:53;;;;;;;13.50;7.55;;;;;;;;;;5096324;28;20044;-61
2021/07/19 13:26:19;;;;;;;8.75;7.07;;;;;;;;;;5077852;28;20024;-61
2021/07/19 13:28:45;;;;;;;8.20;7.43;;;;;;;;;;5095978;28;20020;-61
2021/07/19 13:31:10;;;;;;;12.00;7.13;;;;;;;;;;5096117;28;20379;-61
2021/07/19 13:33:43;;;;;;;8.35;6.22;;;;;;;;;;5096081;28;20043;-61
2021/07/19 13:36:09;;;;;;;10.15;6.38;;;;;;;;;;5096286;28;20352;-61
2021/07/19 13:38:35;;;;;;;9.38;6.45;;;;;;;;;;5096052;28;20076;-61
2021/07/19 13:41:00;;;;;;;13.43;7.00;;;;;;;;;;5095310;28;20073;-61
2021/07/19 13:43:27;;;;;;;10.55;6.78;;;;;;;;;;5096224;28;20153;-61
2021/07/19 13:46:00;;;;;;;9.63;6.55;;;;;;;;;;5095501;28;20035;-61
2021/07/19 13:48:26;;;;;;;7.82;6.30;;;;;;;;;;5095994;28;20369;-61
2021/07/19 13:50:52;;;;;;;8.25;6.72;;;;;;;;;;5077977;28;20012;-61
2021/07/19 13:53:18;;;;;;;8.85;7.20;;;;;;;;;;5095483;28;20020;-61
2021/07/19 13:55:43;;;;;;;12.85;7.88;;;;;;;;;;5095483;28;20027;-61
2021/07/19 13:58:09;;;;;;;11.75;7.53;;;;;;;;;;5095172;28;20485;-60
2021/07/19 14:00:35;;;;;;;12.38;6.97;;;;;;;;;;5095055;28;20031;-61
2021/07/19 14:03:01;;;;;;;8.68;6.53;;;;;;;;;;5090853;28;20028;-60
2021/07/19 14:05:26;;;;;;;10.73;7.53;;;;;;;;;;5095550;28;20107;-61
2021/07/19 14:07:52;;;;;;;10.30;7.07;;;;;;;;;;5095665;28;20114;-61
2021/07/19 14:10:17;;;;;;;8.80;7.00;;;;;;;;;;5077138;28;20527;-61
2021/07/19 14:12:43;;;;;;;15.95;7.25;;;;;;;;;;5095119;28;20114;-61
2021/07/19 14:15:09;;;;;;;7.55;6.63;;;;;;;;;;5077117;28;20016;-61
2021/07/19 14:17:34;;;;;;;9.70;7.18;;;;;;;;;;5094901;28;20043;-61
2021/07/19 14:20:00;;;;;;;16.85;8.07;;;;;;;;;;5095416;28;20025;-61
2021/07/19 14:22:26;;;;;;;16.33;11.10;;;;;;;;;;5095250;28;20038;-61
2021/07/19 14:24:52;;;;;;;7.93;7.05;;;;;;;;;;5095089;28;20043;-61
2021/07/19 14:27:17;;;;;;;8.90;7.40;;;;;;;;;;5094912;28;20028;-61
2021/07/19 14:29:43;;;;;;;12.10;9.10;;;;;;;;;;5094819;28;20084;-61
2021/07/19 14:32:08;;;;;;;12.13;8.48;;;;;;;;;;5094857;28;20505;-62
2021/07/19 14:34:36;;;;;;;18.02;10.35;;;;;;;;;;5094852;28;20463;-61
2021/07/19 14:37:01;;;;;;;11.57;7.68;;;;;;;;;;5094752;28;20157;-61
2021/07/19 14:39:27;;;;;;;14.05;7.43;;;;;;;;;;5094140;28;20103;-61
2021/07/19 14:41:52;;;;;;;12.70;7.78;;;;;;;;;;5094319;28;20040;-60
2021/07/19 14:44:18;;;;;;;10.75;6.82;;;;;;;;;;5094740;28;20568;-61
2021/07/19 14:46:43;;;;;;;13.40;7.82;;;;;;;;;;5094437;28;20040;-61
2021/07/19 14:49:09;;;;;;;10.15;7.80;;;;;;;;;;5094743;28;20059;-61
2021/07/19 14:51:35;;;;;;;11.15;7.53;;;;;;;;;;5094607;28;20078;-61
2021/07/19 14:54:01;;;;;;;8.50;7.03;;;;;;;;;;5094499;28;20468;-61
2021/07/19 14:56:26;;;;;;;10.63;7.63;;;;;;;;;;5076355;28;20036;-61
2021/07/19 14:58:52;;;;;;;9.15;6.97;;;;;;;;;;5094524;28;20020;-61
2021/07/19 15:01:17;;;;;;;10.32;7.03;;;;;;;;;;5094307;28;20059;-61
2021/07/19 15:03:43;;;;;;;7.80;6.60;;;;;;;;;;5094159;28;20028;-61
2021/07/19 15:06:09;;;;;;;9.25;5.93;;;;;;;;;;5094023;28;20024;-61
2021/07/19 15:08:36;;;;;;;8.15;5.93;;;;;;;;;;5094328;28;20016;-61